createdAt,value
2018-12-03T00:01:51.974Z,1.97
2018-12-03T00:04:20.594Z,3.07
2018-12-03T00:06:47.781Z,1.60
2018-12-03T00:09:15.055Z,1.90
2018-12-03T00:11:42.208Z,1.90
2018-12-03T00:14:09.365Z,1.43
2018-12-03T00:16:36.528Z,1.27
2018-12-03T00:19:03.712Z,3.87
2018-12-03T00:21:30.884Z,2.40
2018-12-03T00:23:58.065Z,1.20
2018-12-03T00:26:25.453Z,1.77
2018-12-03T00:28:52.647Z,2.20
2018-12-03T00:31:19.833Z,2.07
2018-12-03T00:33:47.023Z,1.37
2018-12-03T00:36:14.244Z,1.93
2018-12-03T00:38:41.421Z,1.70
2018-12-03T00:41:08.596Z,1.40
2018-12-03T00:43:35.823Z,1.50
2018-12-03T00:46:03.008Z,2.33
2018-12-03T00:48:30.164Z,1.70
2018-12-03T00:50:57.335Z,1.80
2018-12-03T00:53:24.491Z,1.97
2018-12-03T00:55:51.699Z,3.67
2018-12-03T00:58:18.871Z,2.60
2018-12-03T01:00:46.048Z,2.50
2018-12-03T01:03:13.212Z,2.80
2018-12-03T01:05:40.364Z,2.47
2018-12-03T01:08:07.529Z,4.43
2018-12-03T01:10:34.690Z,4.17
2018-12-03T01:13:01.873Z,4.93
2018-12-03T01:15:29.017Z,3.97
2018-12-03T01:17:56.184Z,5.30
2018-12-03T01:20:23.345Z,4.47
2018-12-03T01:22:50.529Z,5.43
2018-12-03T01:25:17.684Z,5.57
2018-12-03T01:27:44.850Z,5.60
2018-12-03T01:30:12.005Z,6.47
2018-12-03T01:32:39.361Z,6.23
2018-12-03T01:35:07.343Z,6.37
2018-12-03T01:37:34.548Z,6.50
2018-12-03T01:40:01.712Z,5.57
2018-12-03T01:42:28.869Z,5.10
2018-12-03T01:44:56.036Z,7.23
2018-12-03T01:47:23.198Z,4.40
2018-12-03T01:49:50.397Z,4.10
2018-12-03T01:52:17.553Z,6.00
2018-12-03T01:54:44.739Z,5.07
2018-12-03T01:57:11.876Z,3.90
2018-12-03T01:59:39.059Z,6.73
2018-12-03T02:02:06.252Z,4.37
2018-12-03T02:04:33.415Z,9.10
2018-12-03T02:07:00.569Z,10.50
2018-12-03T02:09:27.792Z,6.80
2018-12-03T02:11:54.980Z,6.37
2018-12-03T02:14:22.142Z,9.47
2018-12-03T02:16:49.356Z,5.67
2018-12-03T02:19:16.612Z,9.37
2018-12-03T02:21:43.805Z,6.80
2018-12-03T02:24:11.007Z,16.60
2018-12-03T02:26:38.162Z,6.80
2018-12-03T02:29:05.336Z,5.93
2018-12-03T02:31:32.488Z,5.97
2018-12-03T02:33:59.643Z,13.33
2018-12-03T02:36:26.811Z,7.63
2018-12-03T02:38:53.978Z,12.03
2018-12-03T02:41:21.149Z,14.70
2018-12-03T02:43:48.390Z,11.97
2018-12-03T02:46:15.556Z,7.77
2018-12-03T02:48:42.724Z,8.43
2018-12-03T02:51:09.908Z,12.33
2018-12-03T02:53:37.060Z,10.30
2018-12-03T02:56:04.238Z,9.27
2018-12-03T02:58:31.408Z,11.23
2018-12-03T03:00:58.580Z,8.13
2018-12-03T03:03:25.730Z,12.70
2018-12-03T03:05:52.901Z,8.20
2018-12-03T03:08:20.097Z,7.77
2018-12-03T03:10:47.282Z,12.40
2018-12-03T03:13:14.502Z,7.47
2018-12-03T03:15:41.670Z,9.67
2018-12-03T03:18:08.823Z,7.30
2018-12-03T03:20:36.015Z,9.07
2018-12-03T03:23:03.177Z,11.53
2018-12-03T03:25:30.343Z,6.37
2018-12-03T03:27:57.529Z,8.27
2018-12-03T03:30:25.649Z,3.47
2018-12-03T03:32:52.822Z,5.87
2018-12-03T03:35:19.981Z,8.83
2018-12-03T03:37:47.140Z,7.13
2018-12-03T03:40:15.576Z,4.67
2018-12-03T03:42:44.423Z,5.23
2018-12-03T03:45:13.305Z,5.80
2018-12-03T03:47:40.466Z,5.70
2018-12-03T03:50:07.953Z,5.77
2018-12-03T03:52:35.204Z,7.50
2018-12-03T03:55:02.365Z,5.43
2018-12-03T03:57:29.541Z,6.60
2018-12-03T03:59:56.705Z,3.33
2018-12-03T04:02:23.856Z,5.20
2018-12-03T04:04:51.021Z,2.60
2018-12-03T04:07:18.169Z,7.30
2018-12-03T04:09:45.319Z,4.47
2018-12-03T04:12:12.472Z,3.83
2018-12-03T04:14:39.628Z,3.00
2018-12-03T04:17:06.783Z,6.60
2018-12-03T04:19:33.956Z,6.73
2018-12-03T04:22:01.116Z,3.43
2018-12-03T04:24:28.296Z,4.10
2018-12-03T04:26:55.452Z,6.87
2018-12-03T04:29:22.618Z,3.23
2018-12-03T04:31:49.804Z,4.37
2018-12-03T04:34:16.951Z,2.87
2018-12-03T04:36:44.108Z,4.93
2018-12-03T04:39:11.283Z,2.70
2018-12-03T04:41:38.439Z,2.03
2018-12-03T04:44:05.597Z,4.80
2018-12-03T04:46:32.762Z,3.57
2018-12-03T04:49:00.566Z,2.53
2018-12-03T04:51:27.091Z,3.00
2018-12-03T04:53:54.252Z,11.07
2018-12-03T04:56:21.429Z,6.27
2018-12-03T04:58:48.622Z,5.80
2018-12-03T05:01:15.766Z,3.97
2018-12-03T05:03:42.958Z,3.70
2018-12-03T05:06:10.173Z,2.73
2018-12-03T05:08:37.343Z,1.70
2018-12-03T05:11:04.609Z,2.70
2018-12-03T05:13:31.769Z,2.70
2018-12-03T05:15:58.954Z,3.57
2018-12-03T05:18:26.129Z,2.37
2018-12-03T05:20:53.293Z,2.40
2018-12-03T05:23:20.466Z,2.20
2018-12-03T05:25:47.620Z,4.40
2018-12-03T05:28:14.773Z,2.17
2018-12-03T05:30:41.923Z,2.23
2018-12-03T05:33:09.100Z,2.90
2018-12-03T05:35:36.264Z,2.10
2018-12-03T05:38:03.515Z,2.10
2018-12-03T05:40:30.989Z,1.87
2018-12-03T05:42:58.146Z,1.67
2018-12-03T05:45:25.285Z,1.53
2018-12-03T05:47:52.459Z,3.80
2018-12-03T05:50:19.633Z,1.80
2018-12-03T05:52:47.123Z,3.47
2018-12-03T05:55:14.361Z,3.03
2018-12-03T05:57:41.737Z,1.90
2018-12-03T06:00:14.460Z,1.73
2018-12-03T06:02:41.684Z,2.43
2018-12-03T06:05:09.348Z,2.83
2018-12-03T06:07:36.706Z,7.20
2018-12-03T06:10:04.447Z,3.13
2018-12-03T06:12:31.564Z,2.00
2018-12-03T06:14:58.737Z,2.30
2018-12-03T06:17:26.352Z,3.87
2018-12-03T06:19:53.523Z,8.80
2018-12-03T06:22:20.683Z,7.60
2018-12-03T06:24:47.843Z,6.40
2018-12-03T06:27:15.011Z,7.47
2018-12-03T06:29:42.183Z,4.50
2018-12-03T06:32:09.335Z,3.17
2018-12-03T06:34:36.560Z,4.53
2018-12-03T06:37:03.670Z,6.10
2018-12-03T06:39:30.816Z,4.13
2018-12-03T06:41:57.975Z,6.93
2018-12-03T06:44:25.130Z,3.80
2018-12-03T06:46:52.288Z,5.87
2018-12-03T06:49:19.428Z,5.50
2018-12-03T06:51:46.596Z,8.87
2018-12-03T06:54:13.767Z,10.00
2018-12-03T06:56:40.940Z,12.70
2018-12-03T06:59:08.188Z,8.77
2018-12-03T07:01:35.323Z,6.60
2018-12-03T07:04:02.491Z,7.63
2018-12-03T07:06:29.644Z,6.43
2018-12-03T07:08:56.796Z,7.07
2018-12-03T07:11:24.021Z,4.37
2018-12-03T07:13:51.292Z,5.80
2018-12-03T07:16:18.443Z,6.13
2018-12-03T07:18:45.688Z,9.50
2018-12-03T07:21:12.849Z,3.63
2018-12-03T07:23:40.078Z,5.87
2018-12-03T07:26:07.216Z,9.87
2018-12-03T07:28:34.405Z,5.00
2018-12-03T07:31:01.543Z,5.20
2018-12-03T07:33:28.680Z,7.10
2018-12-03T07:35:55.844Z,6.60
2018-12-03T07:38:22.987Z,9.53
2018-12-03T07:40:50.144Z,5.37
2018-12-03T07:43:17.303Z,7.00
2018-12-03T07:45:44.464Z,7.53
2018-12-03T07:48:11.693Z,4.83
2018-12-03T07:50:38.940Z,9.03
2018-12-03T07:53:06.200Z,11.63
2018-12-03T07:55:33.357Z,7.23
2018-12-03T07:58:02.240Z,7.57
2018-12-03T08:00:31.219Z,11.70
2018-12-03T08:02:58.373Z,12.20
2018-12-03T08:05:25.547Z,7.93
2018-12-03T08:07:52.692Z,11.10
2018-12-03T08:10:20.001Z,8.97
2018-12-03T08:12:47.627Z,14.90
2018-12-03T08:15:15.399Z,12.13
2018-12-03T08:17:43.440Z,7.27
2018-12-03T08:20:20.228Z,7.00
2018-12-03T08:23:20.207Z,7.80
2018-12-03T08:25:47.380Z,13.07
2018-12-03T08:28:14.544Z,12.17
2018-12-03T08:30:41.686Z,14.07
2018-12-03T08:33:08.855Z,14.60
2018-12-03T08:35:35.999Z,16.77
2018-12-03T08:38:03.455Z,11.30
2018-12-03T08:40:30.904Z,12.27
2018-12-03T08:42:58.065Z,14.97
2018-12-03T08:45:25.693Z,11.50
2018-12-03T08:47:52.964Z,14.30
2018-12-03T08:50:24.833Z,17.73
2018-12-03T08:52:52.071Z,11.80
2018-12-03T08:55:19.373Z,16.80
2018-12-03T08:57:46.557Z,14.53
2018-12-03T09:00:16.681Z,14.10
2018-12-03T09:02:54.228Z,10.83
2018-12-03T09:05:21.497Z,13.10
2018-12-03T09:07:48.657Z,13.83
2018-12-03T09:10:15.591Z,10.47
2018-12-03T09:12:42.748Z,16.10
2018-12-03T09:15:09.916Z,15.13
2018-12-03T09:17:37.070Z,16.97
2018-12-03T09:20:05.184Z,22.00
2018-12-03T09:22:32.428Z,12.50
2018-12-03T09:24:59.616Z,17.37
2018-12-03T09:27:26.764Z,17.57
2018-12-03T09:29:56.823Z,13.97
2018-12-03T09:32:24.508Z,15.20
2018-12-03T09:34:51.676Z,16.20
2018-12-03T09:37:18.832Z,16.90
2018-12-03T09:39:48.031Z,12.03
2018-12-03T09:42:15.180Z,9.30
2018-12-03T09:44:42.332Z,11.97
2018-12-03T09:47:09.494Z,10.20
2018-12-03T09:49:36.665Z,10.80
2018-12-03T09:52:04.024Z,16.50
2018-12-03T09:54:31.190Z,15.50
2018-12-03T09:56:58.355Z,19.13
2018-12-03T09:59:25.548Z,12.33
2018-12-03T10:01:53.888Z,18.93
2018-12-03T10:04:23.172Z,12.50
2018-12-03T10:06:50.432Z,21.37
2018-12-03T10:09:17.592Z,18.30
2018-12-03T10:11:44.768Z,13.17
2018-12-03T10:14:15.124Z,12.83
2018-12-03T10:16:42.314Z,18.63
2018-12-03T10:19:09.484Z,20.33
2018-12-03T10:21:36.653Z,16.37
2018-12-03T10:24:09.104Z,15.63
2018-12-03T10:26:36.276Z,15.70
2018-12-03T10:29:03.533Z,21.60
2018-12-03T10:31:30.675Z,16.40
2018-12-03T10:33:57.857Z,15.73
2018-12-03T10:36:25.004Z,10.37
2018-12-03T10:38:52.163Z,12.80
2018-12-03T10:41:22.100Z,12.83
2018-12-03T10:43:49.258Z,16.33
2018-12-03T10:46:16.416Z,9.23
2018-12-03T10:48:43.576Z,8.20
2018-12-03T10:51:12.233Z,10.87
2018-12-03T10:53:39.529Z,10.13
2018-12-03T10:56:06.792Z,14.60
2018-12-03T10:58:34.428Z,9.73
2018-12-03T11:01:10.769Z,6.47
2018-12-03T11:03:43.485Z,15.03
2018-12-03T11:06:16.647Z,12.13
2018-12-03T11:08:44.072Z,15.97
2018-12-03T11:11:11.329Z,8.20
2018-12-03T11:13:38.619Z,12.50
2018-12-03T11:16:06.884Z,14.10
2018-12-03T11:18:38.250Z,10.30
2018-12-03T11:21:05.792Z,9.50
2018-12-03T11:23:34.605Z,11.67
2018-12-03T11:26:02.092Z,11.53
2018-12-03T11:28:34.717Z,10.70
2018-12-03T11:31:01.893Z,17.30
2018-12-03T11:33:29.224Z,11.57
2018-12-03T11:35:57.227Z,12.87
2018-12-03T11:38:27.772Z,10.03
2018-12-03T11:40:55.519Z,8.43
2018-12-03T11:43:23.423Z,8.70
2018-12-03T11:45:50.587Z,17.10
2018-12-03T11:48:17.842Z,14.87
2018-12-03T11:50:45.100Z,12.23
2018-12-03T11:53:12.343Z,13.40
2018-12-03T11:55:39.501Z,11.40
2018-12-03T11:58:06.764Z,13.23
2018-12-03T12:00:33.923Z,13.97
2018-12-03T12:03:01.153Z,11.40
2018-12-03T12:05:28.323Z,14.07
2018-12-03T12:07:55.481Z,15.93
2018-12-03T12:10:22.701Z,9.50
2018-12-03T12:12:49.828Z,9.93
2018-12-03T12:15:16.985Z,10.47
2018-12-03T12:17:44.255Z,11.83
2018-12-03T12:20:11.391Z,14.17
2018-12-03T12:22:38.543Z,11.87
2018-12-03T12:25:07.798Z,11.10
2018-12-03T12:27:34.955Z,14.13
2018-12-03T12:30:02.220Z,8.67
2018-12-03T12:32:29.389Z,12.60
2018-12-03T12:34:56.549Z,13.93
2018-12-03T12:37:23.745Z,17.30
2018-12-03T12:39:50.960Z,17.77
2018-12-03T12:42:18.109Z,11.50
2018-12-03T12:44:45.277Z,15.43
2018-12-03T12:47:12.436Z,14.53
2018-12-03T12:49:39.613Z,14.67
2018-12-03T12:52:07.057Z,8.50
2018-12-03T12:54:34.249Z,14.87
2018-12-03T12:57:01.418Z,10.77
2018-12-03T12:59:28.608Z,14.73
2018-12-03T13:01:55.783Z,15.20
2018-12-03T13:04:23.010Z,9.87
2018-12-03T13:06:50.264Z,19.23
2018-12-03T13:09:17.452Z,12.57
2018-12-03T13:11:44.636Z,8.40
2018-12-03T13:14:12.478Z,12.40
2018-12-03T13:19:22.001Z,7.20
2018-12-03T13:21:49.231Z,14.63
2018-12-03T13:24:16.633Z,11.17
2018-12-03T13:26:44.404Z,10.93
2018-12-03T13:29:11.801Z,14.10
2018-12-03T13:31:39.249Z,13.40
2018-12-03T13:34:07.399Z,9.60
2018-12-03T13:36:34.705Z,12.57
2018-12-03T13:39:01.957Z,12.33
2018-12-03T13:41:29.284Z,13.47
2018-12-03T13:43:56.733Z,9.47
2018-12-03T13:46:24.095Z,7.53
2018-12-03T13:48:51.509Z,7.43
2018-12-03T13:51:18.725Z,6.30
2018-12-03T13:53:46.001Z,6.67
2018-12-03T13:56:13.279Z,9.47
2018-12-03T13:58:40.560Z,8.47
2018-12-03T14:01:07.928Z,21.47
2018-12-03T14:03:36.265Z,6.30
2018-12-03T14:06:09.404Z,8.33
2018-12-03T14:08:42.639Z,12.50
2018-12-03T14:11:13.326Z,6.53
2018-12-03T14:13:54.482Z,10.60
2018-12-03T14:16:24.089Z,6.93
2018-12-03T14:18:53.179Z,5.77
2018-12-03T14:21:24.335Z,6.30
2018-12-03T14:23:53.204Z,5.37
2018-12-03T14:26:20.690Z,7.10
2018-12-03T14:31:36.406Z,7.70
2018-12-03T14:34:03.673Z,10.50
2018-12-03T14:36:30.966Z,4.30
2018-12-03T14:38:58.280Z,3.87
2018-12-03T14:41:25.509Z,4.37
2018-12-03T14:43:52.685Z,4.60
2018-12-03T14:46:19.923Z,2.83
2018-12-03T14:48:47.104Z,3.73
2018-12-03T14:51:14.291Z,2.93
2018-12-03T14:53:41.461Z,2.40
2018-12-03T14:56:08.640Z,4.20
2018-12-03T14:58:35.823Z,3.27
2018-12-03T15:01:03.036Z,5.13
2018-12-03T15:03:30.225Z,2.83
2018-12-03T15:05:57.387Z,4.57
2018-12-03T15:08:24.550Z,4.37
2018-12-03T15:10:51.707Z,2.63
2018-12-03T15:13:18.869Z,3.20
2018-12-03T15:15:46.036Z,1.80
2018-12-03T15:18:13.196Z,2.10
2018-12-03T15:20:40.364Z,7.40
2018-12-03T15:23:07.644Z,2.33
2018-12-03T15:25:34.834Z,2.80
2018-12-03T15:28:02.006Z,2.53
2018-12-03T15:30:29.174Z,5.10
2018-12-03T15:32:56.403Z,4.50
2018-12-03T15:35:23.560Z,2.73
2018-12-03T15:37:50.724Z,3.20
2018-12-03T15:40:17.877Z,4.50
2018-12-03T15:42:45.066Z,5.93
2018-12-03T15:45:13.257Z,2.27
2018-12-03T15:47:40.435Z,3.90
2018-12-03T15:50:07.768Z,4.80
2018-12-03T15:52:34.976Z,4.17
2018-12-03T15:55:02.279Z,6.00
2018-12-03T15:57:29.453Z,4.50
2018-12-03T15:59:56.641Z,2.77
2018-12-03T16:02:23.831Z,2.87
2018-12-03T16:04:51.007Z,4.63
2018-12-03T16:07:18.203Z,2.80
2018-12-03T16:09:45.399Z,3.17
2018-12-03T16:12:12.557Z,3.83
2018-12-03T16:14:39.756Z,4.53
2018-12-03T16:17:07.616Z,9.50
2018-12-03T16:19:34.963Z,6.10
2018-12-03T16:22:02.112Z,3.97
2018-12-03T16:24:29.287Z,4.27
2018-12-03T16:26:56.440Z,3.10
2018-12-03T16:29:23.616Z,9.07
2018-12-03T16:31:50.801Z,2.97
2018-12-03T16:34:18.104Z,3.47
2018-12-03T16:36:45.259Z,8.20
2018-12-03T16:39:12.428Z,7.73
2018-12-03T16:41:46.076Z,4.00
2018-12-03T16:44:13.224Z,5.73
2018-12-03T16:46:40.385Z,6.70
2018-12-03T16:49:07.578Z,5.07
2018-12-03T16:51:34.761Z,5.43
2018-12-03T16:54:01.912Z,6.90
2018-12-03T16:56:29.086Z,5.27
2018-12-03T16:58:56.266Z,7.00
2018-12-03T17:01:23.450Z,7.40
2018-12-03T17:03:50.629Z,3.77
2018-12-03T17:06:17.789Z,3.63
2018-12-03T17:08:44.972Z,7.50
2018-12-03T17:11:12.113Z,3.67
2018-12-03T17:13:39.287Z,3.87
2018-12-03T17:16:06.525Z,2.87
2018-12-03T17:18:33.697Z,3.13
2018-12-03T17:21:04.314Z,4.50
2018-12-03T17:23:35.091Z,3.50
2018-12-03T17:26:02.245Z,3.93
2018-12-03T17:28:29.429Z,7.33
2018-12-03T17:30:56.620Z,2.97
2018-12-03T17:33:23.787Z,4.23
2018-12-03T17:35:50.964Z,2.93
2018-12-03T17:38:18.240Z,4.90
2018-12-03T17:40:45.411Z,3.30
2018-12-03T17:43:12.590Z,2.53
2018-12-03T17:45:39.812Z,2.47
2018-12-03T17:48:07.092Z,4.07
2018-12-03T17:50:34.286Z,3.83
2018-12-03T17:53:01.551Z,7.00
2018-12-03T17:55:28.841Z,2.97
2018-12-03T17:57:55.993Z,6.63
2018-12-03T18:00:23.171Z,3.43
2018-12-03T18:02:50.331Z,6.30
2018-12-03T18:05:17.505Z,6.80
2018-12-03T18:07:44.661Z,9.43
2018-12-03T18:10:11.909Z,2.20
2018-12-03T18:12:39.335Z,6.50
2018-12-03T18:15:07.436Z,4.03
2018-12-03T18:17:34.628Z,10.57
2018-12-03T18:20:01.856Z,5.00
2018-12-03T18:22:29.100Z,5.20
2018-12-03T18:24:56.306Z,5.53
2018-12-03T18:27:23.558Z,10.50
2018-12-03T18:29:50.726Z,4.07
2018-12-03T18:32:17.908Z,9.80
2018-12-03T18:34:45.211Z,11.70
2018-12-03T18:37:12.364Z,4.90
2018-12-03T18:39:39.533Z,10.17
2018-12-03T18:42:06.699Z,7.10
2018-12-03T18:44:33.884Z,4.77
2018-12-03T18:47:01.068Z,9.90
2018-12-03T18:49:30.417Z,7.63
2018-12-03T18:51:57.664Z,7.07
2018-12-03T18:54:24.865Z,3.53
2018-12-03T18:56:52.051Z,5.60
2018-12-03T18:59:19.580Z,7.73
2018-12-03T19:01:46.724Z,6.60
2018-12-03T19:04:16.187Z,6.37
2018-12-03T19:06:43.465Z,7.80
2018-12-03T19:09:10.642Z,7.80
2018-12-03T19:11:37.914Z,7.40
2018-12-03T19:14:05.107Z,7.13
2018-12-03T19:16:32.285Z,10.63
2018-12-03T19:18:59.452Z,5.17
2018-12-03T19:21:26.618Z,11.60
2018-12-03T19:23:53.790Z,7.20
2018-12-03T19:26:20.965Z,10.33
2018-12-03T19:28:48.126Z,7.03
2018-12-03T19:31:15.284Z,9.27
2018-12-03T19:33:42.459Z,8.43
2018-12-03T19:36:09.616Z,7.87
2018-12-03T19:38:36.829Z,8.80
2018-12-03T19:41:03.993Z,6.57
2018-12-03T19:43:31.161Z,10.57
2018-12-03T19:45:58.343Z,9.93
2018-12-03T19:48:25.496Z,9.50
2018-12-03T19:50:52.660Z,10.30
2018-12-03T19:53:19.865Z,11.83
2018-12-03T19:55:47.441Z,8.03
2018-12-03T19:58:16.395Z,8.10
2018-12-03T20:00:44.308Z,6.57
2018-12-03T20:03:11.486Z,10.63
2018-12-03T20:05:38.652Z,12.73
2018-12-03T20:08:05.870Z,14.87
2018-12-03T20:10:33.019Z,12.50
2018-12-03T20:13:00.221Z,13.80
2018-12-03T20:15:27.385Z,13.93
2018-12-03T20:17:54.569Z,20.33
2018-12-03T20:20:24.284Z,10.90
2018-12-03T20:22:56.267Z,13.43
2018-12-03T20:25:25.537Z,12.63
2018-12-03T20:27:54.522Z,9.37
2018-12-03T20:30:27.194Z,12.27
2018-12-03T20:32:57.605Z,14.10
2018-12-03T20:35:31.898Z,16.13
2018-12-03T20:38:02.945Z,13.63
2018-12-03T20:40:37.947Z,10.37
2018-12-03T20:43:07.764Z,16.57
2018-12-03T20:45:46.385Z,14.30
2018-12-03T20:48:13.552Z,11.70
2018-12-03T20:50:43.595Z,14.87
2018-12-03T20:53:11.359Z,11.30
2018-12-03T20:55:40.932Z,10.27
2018-12-03T20:58:08.100Z,13.40
2018-12-03T21:00:35.388Z,12.20
2018-12-03T21:03:02.563Z,14.10
2018-12-03T21:05:29.762Z,17.50
2018-12-03T21:07:56.985Z,11.20
2018-12-03T21:10:24.274Z,11.27
2018-12-03T21:12:51.455Z,23.50
2018-12-03T21:15:18.645Z,13.03
2018-12-03T21:17:45.881Z,14.30
2018-12-03T21:20:14.808Z,19.50
2018-12-03T21:22:42.071Z,15.50
2018-12-03T21:25:09.240Z,16.90
2018-12-03T21:27:36.421Z,12.30
2018-12-03T21:30:03.760Z,19.50
2018-12-03T21:32:30.962Z,13.03
2018-12-03T21:34:58.169Z,13.53
2018-12-03T21:37:25.468Z,8.90
2018-12-03T21:39:52.725Z,11.00
2018-12-03T21:42:19.925Z,13.63
2018-12-03T21:44:47.084Z,14.27
2018-12-03T21:47:14.256Z,16.83
2018-12-03T21:49:41.479Z,14.03
2018-12-03T21:52:08.757Z,12.43
2018-12-03T21:54:35.929Z,11.23
2018-12-03T21:57:03.105Z,10.77
2018-12-03T21:59:30.298Z,12.50
2018-12-03T22:01:57.459Z,11.27
2018-12-03T22:04:24.665Z,13.30
2018-12-03T22:06:51.841Z,15.23
2018-12-03T22:09:19.005Z,10.20
2018-12-03T22:11:46.173Z,20.30
2018-12-03T22:14:13.367Z,11.07
2018-12-03T22:16:40.627Z,16.50
2018-12-03T22:19:07.814Z,9.50
2018-12-03T22:21:35.025Z,19.60
2018-12-03T22:24:02.183Z,16.87
2018-12-03T22:26:29.372Z,10.67
2018-12-03T22:28:56.592Z,16.77
2018-12-03T22:31:23.748Z,14.63
2018-12-03T22:33:50.920Z,8.90
2018-12-03T22:36:18.087Z,12.50
2018-12-03T22:38:45.247Z,10.70
2018-12-03T22:41:12.433Z,12.53
2018-12-03T22:43:39.596Z,7.07
2018-12-03T22:46:06.780Z,13.87
2018-12-03T22:48:33.957Z,12.73
2018-12-03T22:51:01.195Z,9.73
2018-12-03T22:53:28.355Z,11.60
2018-12-03T22:55:55.532Z,13.20
2018-12-03T22:58:22.689Z,7.30
2018-12-03T23:00:58.923Z,10.43
2018-12-03T23:03:26.146Z,17.13
2018-12-03T23:05:53.315Z,13.10
2018-12-03T23:08:20.497Z,14.67
2018-12-03T23:10:47.668Z,10.60
2018-12-03T23:13:14.841Z,14.47
2018-12-03T23:15:42.000Z,16.50
2018-12-03T23:18:09.174Z,12.93
2018-12-03T23:20:36.342Z,15.00
2018-12-03T23:23:03.529Z,11.33
2018-12-03T23:25:30.703Z,9.20
2018-12-03T23:27:57.884Z,11.37
2018-12-03T23:30:25.062Z,9.67
2018-12-03T23:32:52.244Z,14.87
2018-12-03T23:35:19.406Z,14.67
2018-12-03T23:37:46.580Z,16.50
2018-12-03T23:40:13.754Z,11.03
2018-12-03T23:42:40.952Z,16.67
2018-12-03T23:45:08.246Z,11.17
2018-12-03T23:47:35.431Z,11.13
2018-12-03T23:50:02.722Z,16.93
2018-12-03T23:52:29.887Z,15.47
2018-12-03T23:54:57.112Z,13.20
2018-12-03T23:57:24.316Z,15.50
2018-12-03T23:59:51.501Z,6.87
